createdAt,value
2018-11-04T00:00:45.420Z,2.68
2018-11-04T00:05:49.697Z,2.64
2018-11-04T00:10:53.511Z,2.58
2018-11-04T00:15:57.201Z,2.49
2018-11-04T00:21:02.129Z,2.52
2018-11-04T00:26:06.826Z,2.52
2018-11-04T00:31:10.774Z,2.42
2018-11-04T00:36:14.488Z,2.50
2018-11-04T00:41:18.079Z,2.66
2018-11-04T00:46:21.733Z,2.83
2018-11-04T00:51:25.367Z,2.94
2018-11-04T00:56:29.044Z,3.03
2018-11-04T01:01:32.624Z,3.10
2018-11-04T01:06:36.201Z,3.06
2018-11-04T01:11:39.815Z,3.08
2018-11-04T01:16:47.375Z,3.11
2018-11-04T01:21:51.090Z,3.18
2018-11-04T01:26:54.728Z,3.20
2018-11-04T01:31:58.268Z,3.22
2018-11-04T01:37:02.236Z,3.19
2018-11-04T01:42:06.362Z,3.15
2018-11-04T01:47:09.959Z,3.20
2018-11-04T01:52:13.675Z,3.16
2018-11-04T01:57:17.267Z,3.19
2018-11-04T02:02:21.022Z,3.23
2018-11-04T02:07:24.654Z,3.18
2018-11-04T02:12:28.619Z,3.16
2018-11-04T02:17:32.199Z,3.11
2018-11-04T02:22:35.775Z,3.04
2018-11-04T02:27:39.688Z,2.95
2018-11-04T02:32:44.343Z,2.85
2018-11-04T02:37:47.891Z,2.87
2018-11-04T02:42:51.487Z,2.86
2018-11-04T02:47:55.314Z,2.75
2018-11-04T02:52:58.958Z,2.53
2018-11-04T02:58:02.905Z,2.58
2018-11-04T03:03:06.924Z,2.58
2018-11-04T03:08:10.568Z,2.51
2018-11-04T03:13:14.257Z,2.32
2018-11-04T03:18:17.864Z,2.36
2018-11-04T03:23:21.481Z,2.48
2018-11-04T03:28:25.061Z,2.53
2018-11-04T03:33:28.739Z,2.56
2018-11-04T03:38:32.361Z,2.55
2018-11-04T03:43:35.909Z,2.55
2018-11-04T03:48:39.546Z,2.57
2018-11-04T03:53:43.125Z,2.65
2018-11-04T03:58:46.798Z,2.58
2018-11-04T04:03:50.364Z,2.38
2018-11-04T04:08:54.125Z,2.53
2018-11-04T04:13:57.731Z,2.36
2018-11-04T04:19:01.393Z,2.45
2018-11-04T04:24:05.182Z,2.37
2018-11-04T04:29:08.861Z,2.32
2018-11-04T04:34:12.704Z,2.30
2018-11-04T04:39:16.316Z,2.25
2018-11-04T04:44:19.945Z,2.27
2018-11-04T04:49:23.575Z,2.17
2018-11-04T04:54:29.503Z,2.28
2018-11-04T04:59:33.274Z,2.34
2018-11-04T05:04:36.963Z,2.45
2018-11-04T05:09:40.519Z,2.52
2018-11-04T05:14:44.186Z,2.50
2018-11-04T05:19:47.817Z,2.48
2018-11-04T05:24:51.419Z,2.37
2018-11-04T05:29:54.992Z,2.55
2018-11-04T05:34:58.624Z,2.62
2018-11-04T05:40:02.483Z,2.80
2018-11-04T05:45:07.167Z,2.85
2018-11-04T05:50:10.784Z,3.09
2018-11-04T05:55:14.337Z,3.27
2018-11-04T06:00:26.076Z,3.42
2018-11-04T06:05:29.784Z,3.39
2018-11-04T06:10:33.394Z,3.44
2018-11-04T06:15:37.259Z,3.58
2018-11-04T06:20:40.845Z,3.75
2018-11-04T06:25:44.448Z,3.87
2018-11-04T06:30:48.633Z,3.96
2018-11-04T06:35:52.230Z,4.04
2018-11-04T06:40:55.879Z,4.01
2018-11-04T06:45:59.465Z,4.03
2018-11-04T06:51:03.081Z,4.19
2018-11-04T06:56:06.997Z,4.38
2018-11-04T07:01:10.618Z,4.52
2018-11-04T07:06:14.339Z,4.62
2018-11-04T07:11:18.046Z,4.58
2018-11-04T07:16:21.644Z,4.68
2018-11-04T07:21:25.449Z,4.65
2018-11-04T07:26:29.097Z,4.60
2018-11-04T07:31:32.913Z,4.59
2018-11-04T07:36:36.524Z,4.88
2018-11-04T07:41:40.250Z,5.11
2018-11-04T07:46:43.867Z,5.21
2018-11-04T07:51:47.417Z,5.38
2018-11-04T07:56:51.109Z,5.48
2018-11-04T08:01:54.712Z,5.57
2018-11-04T08:06:58.331Z,5.70
2018-11-04T08:12:01.950Z,5.80
2018-11-04T08:17:06.006Z,5.91
2018-11-04T08:22:09.717Z,6.00
2018-11-04T08:27:13.495Z,6.12
2018-11-04T08:32:17.118Z,6.17
2018-11-04T08:37:20.873Z,6.38
2018-11-04T08:42:24.409Z,6.57
2018-11-04T08:47:28.013Z,6.58
2018-11-04T08:52:31.668Z,6.89
2018-11-04T08:57:35.258Z,6.98
2018-11-04T09:02:38.881Z,7.16
2018-11-04T09:07:42.510Z,7.45
2018-11-04T09:12:46.568Z,7.75
2018-11-04T09:17:50.225Z,7.77
2018-11-04T09:22:53.793Z,7.82
2018-11-04T09:27:57.453Z,7.87
2018-11-04T09:33:01.199Z,7.96
2018-11-04T09:38:05.308Z,8.00
2018-11-04T09:43:08.859Z,8.19
2018-11-04T09:48:12.571Z,8.33
2018-11-04T09:53:16.319Z,8.62
2018-11-04T09:58:19.952Z,8.81
2018-11-04T10:03:23.561Z,8.86
2018-11-04T10:08:27.616Z,9.09
2018-11-04T10:13:31.209Z,9.25
2018-11-04T10:18:34.755Z,9.39
2018-11-04T10:23:38.785Z,9.39
2018-11-04T10:28:42.435Z,9.77
2018-11-04T10:33:46.156Z,9.72
2018-11-04T10:38:50.029Z,9.86
2018-11-04T10:43:53.571Z,10.02
2018-11-04T10:48:57.388Z,9.90
2018-11-04T10:54:01.249Z,9.94
2018-11-04T10:59:05.145Z,10.03
2018-11-04T11:04:09.264Z,10.19
2018-11-04T11:09:13.007Z,10.27
2018-11-04T11:14:16.751Z,10.28
2018-11-04T11:19:20.401Z,10.39
2018-11-04T11:24:24.045Z,10.56
2018-11-04T11:29:27.719Z,10.55
2018-11-04T11:34:31.428Z,10.62
2018-11-04T11:39:36.728Z,10.67
2018-11-04T11:44:40.405Z,10.61
2018-11-04T11:49:44.008Z,10.66
2018-11-04T11:54:47.749Z,10.78
2018-11-04T11:59:51.473Z,10.74
2018-11-04T12:04:55.051Z,10.74
2018-11-04T12:09:58.622Z,10.76
2018-11-04T12:15:03.691Z,10.78
2018-11-04T12:20:09.871Z,10.93
2018-11-04T12:25:14.088Z,10.97
2018-11-04T12:30:26.983Z,11.08
2018-11-04T12:35:31.643Z,11.21
2018-11-04T12:40:35.397Z,11.35
2018-11-04T12:45:39.076Z,11.41
2018-11-04T12:50:42.711Z,11.50
2018-11-04T12:55:46.301Z,11.51
2018-11-04T13:00:49.884Z,11.55
2018-11-04T13:05:53.517Z,11.61
2018-11-04T13:10:57.060Z,11.71
2018-11-04T13:16:00.674Z,11.69
2018-11-04T13:21:04.301Z,11.63
2018-11-04T13:26:07.882Z,11.59
2018-11-04T13:31:11.527Z,11.68
2018-11-04T13:36:15.186Z,11.65
2018-11-04T13:41:18.778Z,11.62
2018-11-04T13:46:22.393Z,11.56
2018-11-04T13:51:25.959Z,11.59
2018-11-04T13:56:29.780Z,11.63
2018-11-04T14:01:33.368Z,11.59
2018-11-04T14:06:37.157Z,11.69
2018-11-04T14:11:40.812Z,11.69
2018-11-04T14:16:44.389Z,11.77
2018-11-04T14:21:48.131Z,11.78
2018-11-04T14:26:51.792Z,11.65
2018-11-04T14:31:55.505Z,11.64
2018-11-04T14:36:59.155Z,11.58
2018-11-04T14:42:02.827Z,11.59
2018-11-04T14:47:07.433Z,11.60
2018-11-04T14:52:11.338Z,11.48
2018-11-04T14:57:14.974Z,11.45
2018-11-04T15:02:18.666Z,11.39
2018-11-04T15:07:22.303Z,11.30
2018-11-04T15:12:25.907Z,11.23
2018-11-04T15:17:29.624Z,11.19
2018-11-04T15:22:33.213Z,11.17
2018-11-04T15:27:37.104Z,11.11
2018-11-04T15:32:41.211Z,11.08
2018-11-04T15:37:45.204Z,11.05
2018-11-04T15:42:48.785Z,10.98
2018-11-04T15:47:52.386Z,10.89
2018-11-04T15:52:56.010Z,10.86
2018-11-04T15:57:59.648Z,10.82
2018-11-04T16:03:03.333Z,10.81
2018-11-04T16:08:07.219Z,10.73
2018-11-04T16:13:10.724Z,10.74
2018-11-04T16:18:14.431Z,10.68
2018-11-04T16:23:18.177Z,10.68
2018-11-04T16:28:21.890Z,10.68
2018-11-04T16:33:25.492Z,10.68
2018-11-04T16:38:29.080Z,10.69
2018-11-04T16:43:32.885Z,10.68
2018-11-04T16:48:36.393Z,10.68
2018-11-04T16:53:39.959Z,10.67
2018-11-04T16:58:43.524Z,10.63
2018-11-04T17:03:47.391Z,10.61
2018-11-04T17:08:50.947Z,10.65
2018-11-04T17:13:54.539Z,10.66
2018-11-04T17:18:58.279Z,10.69
2018-11-04T17:24:07.022Z,10.66
2018-11-04T17:29:11.504Z,10.61
2018-11-04T17:34:21.415Z,10.59
2018-11-04T17:39:25.065Z,10.62
2018-11-04T17:44:36.121Z,10.58
2018-11-04T17:49:40.058Z,10.58
2018-11-04T17:54:43.932Z,10.55
2018-11-04T17:59:48.325Z,10.56
2018-11-04T18:04:51.958Z,10.57
2018-11-04T18:09:55.557Z,10.54
2018-11-04T18:15:01.709Z,10.53
2018-11-04T18:20:05.983Z,10.49
2018-11-04T18:25:10.577Z,10.47
2018-11-04T18:30:24.034Z,10.52
2018-11-04T18:35:27.608Z,10.50
2018-11-04T18:40:31.129Z,10.50
2018-11-04T18:45:34.695Z,10.50
2018-11-04T18:50:38.306Z,10.51
2018-11-04T18:55:41.858Z,10.52
2018-11-04T19:00:47.171Z,10.45
2018-11-04T19:05:51.585Z,10.50
2018-11-04T19:10:55.242Z,10.49
2018-11-04T19:15:58.817Z,10.45
2018-11-04T19:21:02.596Z,10.46
2018-11-04T19:26:06.572Z,10.46
2018-11-04T19:31:10.262Z,10.46
2018-11-04T19:36:13.928Z,10.40
2018-11-04T19:41:17.531Z,10.46
2018-11-04T19:46:21.186Z,10.45
2018-11-04T19:51:24.793Z,10.38
2018-11-04T19:56:28.319Z,10.37
2018-11-04T20:01:32.186Z,10.39
2018-11-04T20:06:35.875Z,10.32
2018-11-04T20:11:39.643Z,10.30
2018-11-04T20:16:43.409Z,10.31
2018-11-04T20:21:46.950Z,10.28
2018-11-04T20:26:50.833Z,10.26
2018-11-04T20:31:59.579Z,10.21
2018-11-04T20:37:03.143Z,10.17
2018-11-04T20:42:06.680Z,10.24
2018-11-04T20:47:10.424Z,10.26
2018-11-04T20:52:13.996Z,10.22
2018-11-04T20:57:22.883Z,10.26
2018-11-04T21:02:26.902Z,10.23
2018-11-04T21:07:30.226Z,10.26
2018-11-04T21:12:33.848Z,10.20
2018-11-04T21:17:37.465Z,10.22
2018-11-04T21:22:41.022Z,10.23
2018-11-04T21:27:44.729Z,10.21
2018-11-04T21:32:48.427Z,10.18
2018-11-04T21:37:52.398Z,10.25
2018-11-04T21:42:56.393Z,10.21
2018-11-04T21:47:59.976Z,10.12
2018-11-04T21:53:03.621Z,9.98
2018-11-04T21:58:12.002Z,10.01
2018-11-04T22:03:15.776Z,9.90
2018-11-04T22:08:19.208Z,9.78
2018-11-04T22:13:22.728Z,9.68
2018-11-04T22:18:26.433Z,9.63
2018-11-04T22:23:29.985Z,9.61
2018-11-04T22:28:33.968Z,9.53
2018-11-04T22:33:37.869Z,9.52
2018-11-04T22:38:41.901Z,9.55
2018-11-04T22:43:45.773Z,9.46
2018-11-04T22:48:49.602Z,9.34
2018-11-04T22:53:53.212Z,9.27
2018-11-04T22:58:56.832Z,9.20
2018-11-04T23:04:00.480Z,9.08
2018-11-04T23:09:04.746Z,9.08
2018-11-04T23:14:08.479Z,9.05
2018-11-04T23:19:12.159Z,9.07
2018-11-04T23:24:16.755Z,9.10
2018-11-04T23:29:20.401Z,9.09
2018-11-04T23:34:23.851Z,9.13
2018-11-04T23:39:28.072Z,9.04
2018-11-04T23:44:31.602Z,8.95
2018-11-04T23:49:35.217Z,8.85
2018-11-04T23:54:38.811Z,8.84
2018-11-04T23:59:42.414Z,8.69
